sensor_id;sensor_type;location;lat;lon;timestamp;temperature;humidity
19552;DHT22;9921;47.186;9.778;2023-07-13T00:01:49;19.60;99.90
19552;DHT22;9921;47.186;9.778;2023-07-13T00:04:17;19.50;99.90
19552;DHT22;9921;47.186;9.778;2023-07-13T00:06:44;19.40;99.90
19552;DHT22;9921;47.186;9.778;2023-07-13T00:09:12;19.40;99.90
19552;DHT22;9921;47.186;9.778;2023-07-13T00:11:39;19.20;99.90
19552;DHT22;9921;47.186;9.778;2023-07-13T00:14:06;19.10;99.90
19552;DHT22;9921;47.186;9.778;2023-07-13T00:16:36;19.00;99.90
19552;DHT22;9921;47.186;9.778;2023-07-13T00:19:03;19.00;99.90
19552;DHT22;9921;47.186;9.778;2023-07-13T00:21:30;19.10;99.90
19552;DHT22;9921;47.186;9.778;2023-07-13T00:23:57;19.20;99.90
19552;DHT22;9921;47.186;9.778;2023-07-13T00:26:26;19.30;99.90
19552;DHT22;9921;47.186;9.778;2023-07-13T00:28:52;19.40;99.90
19552;DHT22;9921;47.186;9.778;2023-07-13T00:31:19;19.30;99.90
19552;DHT22;9921;47.186;9.778;2023-07-13T00:33:48;19.40;99.90
19552;DHT22;9921;47.186;9.778;2023-07-13T00:36:15;19.40;99.90
19552;DHT22;9921;47.186;9.778;2023-07-13T00:38:42;19.30;99.90
19552;DHT22;9921;47.186;9.778;2023-07-13T00:41:09;19.30;99.90
19552;DHT22;9921;47.186;9.778;2023-07-13T00:43:36;19.40;99.90
19552;DHT22;9921;47.186;9.778;2023-07-13T00:46:23;19.60;99.90
19552;DHT22;9921;47.186;9.778;2023-07-13T00:48:53;19.70;99.90
19552;DHT22;9921;47.186;9.778;2023-07-13T00:51:26;19.80;99.90
19552;DHT22;9921;47.186;9.778;2023-07-13T00:53:56;19.60;99.90
19552;DHT22;9921;47.186;9.778;2023-07-13T00:56:25;19.40;99.90
19552;DHT22;9921;47.186;9.778;2023-07-13T00:58:52;19.30;99.90
19552;DHT22;9921;47.186;9.778;2023-07-13T01:01:19;19.30;99.90
19552;DHT22;9921;47.186;9.778;2023-07-13T01:03:46;19.30;99.90
19552;DHT22;9921;47.186;9.778;2023-07-13T01:06:14;19.40;99.90
19552;DHT22;9921;47.186;9.778;2023-07-13T01:08:43;19.60;99.90
19552;DHT22;9921;47.186;9.778;2023-07-13T01:11:09;19.50;99.90
19552;DHT22;9921;47.186;9.778;2023-07-13T01:13:36;19.40;99.90
19552;DHT22;9921;47.186;9.778;2023-07-13T01:16:11;19.30;99.90
19552;DHT22;9921;47.186;9.778;2023-07-13T01:18:39;19.40;99.90
19552;DHT22;9921;47.186;9.778;2023-07-13T01:21:08;19.50;99.90
19552;DHT22;9921;47.186;9.778;2023-07-13T01:23:35;19.70;99.90
19552;DHT22;9921;47.186;9.778;2023-07-13T01:26:02;19.80;99.90
19552;DHT22;9921;47.186;9.778;2023-07-13T01:28:29;19.70;99.90
19552;DHT22;9921;47.186;9.778;2023-07-13T01:30:57;19.50;99.90
19552;DHT22;9921;47.186;9.778;2023-07-13T01:33:25;19.20;99.90
19552;DHT22;9921;47.186;9.778;2023-07-13T01:35:52;19.00;99.90
19552;DHT22;9921;47.186;9.778;2023-07-13T01:38:22;19.10;99.90
19552;DHT22;9921;47.186;9.778;2023-07-13T01:40:49;19.00;99.90
19552;DHT22;9921;47.186;9.778;2023-07-13T01:43:16;19.10;99.90
19552;DHT22;9921;47.186;9.778;2023-07-13T01:45:44;18.90;99.90
19552;DHT22;9921;47.186;9.778;2023-07-13T01:48:11;18.80;99.90
19552;DHT22;9921;47.186;9.778;2023-07-13T01:50:38;18.60;99.90
19552;DHT22;9921;47.186;9.778;2023-07-13T01:53:05;18.60;99.90
19552;DHT22;9921;47.186;9.778;2023-07-13T01:55:34;18.60;99.90
19552;DHT22;9921;47.186;9.778;2023-07-13T01:58:01;18.70;99.90
19552;DHT22;9921;47.186;9.778;2023-07-13T02:00:28;18.80;99.90
19552;DHT22;9921;47.186;9.778;2023-07-13T02:02:55;19.00;99.90
19552;DHT22;9921;47.186;9.778;2023-07-13T02:05:22;19.00;99.90
19552;DHT22;9921;47.186;9.778;2023-07-13T02:07:49;19.20;99.90
19552;DHT22;9921;47.186;9.778;2023-07-13T02:10:17;19.40;99.90
19552;DHT22;9921;47.186;9.778;2023-07-13T02:12:45;19.50;99.90
19552;DHT22;9921;47.186;9.778;2023-07-13T02:15:12;19.50;99.90
19552;DHT22;9921;47.186;9.778;2023-07-13T02:17:39;19.60;99.90
19552;DHT22;9921;47.186;9.778;2023-07-13T02:20:07;19.70;99.90
19552;DHT22;9921;47.186;9.778;2023-07-13T02:22:35;19.70;99.90
19552;DHT22;9921;47.186;9.778;2023-07-13T02:25:02;19.80;99.90
19552;DHT22;9921;47.186;9.778;2023-07-13T02:27:29;19.80;99.90
19552;DHT22;9921;47.186;9.778;2023-07-13T02:29:57;19.90;99.90
19552;DHT22;9921;47.186;9.778;2023-07-13T02:32:24;19.90;99.90
19552;DHT22;9921;47.186;9.778;2023-07-13T02:34:51;20.00;99.90
19552;DHT22;9921;47.186;9.778;2023-07-13T02:37:19;20.10;99.90
19552;DHT22;9921;47.186;9.778;2023-07-13T02:39:47;20.10;99.90
19552;DHT22;9921;47.186;9.778;2023-07-13T02:42:14;20.00;99.90
19552;DHT22;9921;47.186;9.778;2023-07-13T02:44:40;20.00;99.90
19552;DHT22;9921;47.186;9.778;2023-07-13T02:47:09;20.00;99.90
19552;DHT22;9921;47.186;9.778;2023-07-13T02:49:36;19.70;99.90
19552;DHT22;9921;47.186;9.778;2023-07-13T02:52:03;19.70;99.90
19552;DHT22;9921;47.186;9.778;2023-07-13T02:54:30;19.80;99.90
19552;DHT22;9921;47.186;9.778;2023-07-13T02:56:57;19.80;99.90
19552;DHT22;9921;47.186;9.778;2023-07-13T02:59:24;19.90;99.90
19552;DHT22;9921;47.186;9.778;2023-07-13T03:01:51;19.90;99.90
19552;DHT22;9921;47.186;9.778;2023-07-13T03:04:19;20.00;99.90
19552;DHT22;9921;47.186;9.778;2023-07-13T03:06:46;20.10;99.90
19552;DHT22;9921;47.186;9.778;2023-07-13T03:09:13;20.10;99.90
19552;DHT22;9921;47.186;9.778;2023-07-13T03:11:40;20.10;99.90
19552;DHT22;9921;47.186;9.778;2023-07-13T03:14:08;20.10;99.90
19552;DHT22;9921;47.186;9.778;2023-07-13T03:16:35;20.00;99.90
19552;DHT22;9921;47.186;9.778;2023-07-13T03:19:02;19.80;99.90
19552;DHT22;9921;47.186;9.778;2023-07-13T03:21:30;19.80;99.90
19552;DHT22;9921;47.186;9.778;2023-07-13T03:23:57;19.80;99.90
19552;DHT22;9921;47.186;9.778;2023-07-13T03:26:24;19.80;99.90
19552;DHT22;9921;47.186;9.778;2023-07-13T03:28:51;19.80;99.90
19552;DHT22;9921;47.186;9.778;2023-07-13T03:31:19;19.90;99.90
19552;DHT22;9921;47.186;9.778;2023-07-13T03:33:46;20.00;99.90
19552;DHT22;9921;47.186;9.778;2023-07-13T03:36:15;20.00;99.90
19552;DHT22;9921;47.186;9.778;2023-07-13T03:38:46;20.00;99.90
19552;DHT22;9921;47.186;9.778;2023-07-13T03:41:13;20.10;99.90
19552;DHT22;9921;47.186;9.778;2023-07-13T03:43:40;20.20;99.90
19552;DHT22;9921;47.186;9.778;2023-07-13T03:46:07;20.20;99.90
19552;DHT22;9921;47.186;9.778;2023-07-13T03:48:34;20.20;99.90
19552;DHT22;9921;47.186;9.778;2023-07-13T03:51:01;20.30;99.90
19552;DHT22;9921;47.186;9.778;2023-07-13T03:53:28;20.30;99.90
19552;DHT22;9921;47.186;9.778;2023-07-13T03:55:56;20.30;99.90
19552;DHT22;9921;47.186;9.778;2023-07-13T03:58:28;20.30;99.90
19552;DHT22;9921;47.186;9.778;2023-07-13T04:00:56;20.10;99.90
19552;DHT22;9921;47.186;9.778;2023-07-13T04:03:24;20.10;99.90
19552;DHT22;9921;47.186;9.778;2023-07-13T04:05:53;20.10;99.90
19552;DHT22;9921;47.186;9.778;2023-07-13T04:08:20;20.10;99.90
19552;DHT22;9921;47.186;9.778;2023-07-13T04:10:47;20.00;99.90
19552;DHT22;9921;47.186;9.778;2023-07-13T04:13:16;20.10;99.90
19552;DHT22;9921;47.186;9.778;2023-07-13T04:15:43;20.10;99.90
19552;DHT22;9921;47.186;9.778;2023-07-13T04:18:11;20.00;99.90
19552;DHT22;9921;47.186;9.778;2023-07-13T04:20:37;19.80;99.90
19552;DHT22;9921;47.186;9.778;2023-07-13T04:23:06;19.80;99.90
19552;DHT22;9921;47.186;9.778;2023-07-13T04:25:33;19.80;99.90
19552;DHT22;9921;47.186;9.778;2023-07-13T04:28:00;19.70;99.90
19552;DHT22;9921;47.186;9.778;2023-07-13T04:30:29;19.70;99.90
19552;DHT22;9921;47.186;9.778;2023-07-13T04:32:56;19.70;99.90
19552;DHT22;9921;47.186;9.778;2023-07-13T04:35:23;19.70;99.90
19552;DHT22;9921;47.186;9.778;2023-07-13T04:37:50;19.70;99.90
19552;DHT22;9921;47.186;9.778;2023-07-13T04:40:17;19.70;99.90
19552;DHT22;9921;47.186;9.778;2023-07-13T04:42:44;19.50;99.90
19552;DHT22;9921;47.186;9.778;2023-07-13T04:45:12;19.20;99.90
19552;DHT22;9921;47.186;9.778;2023-07-13T04:47:41;19.00;99.90
19552;DHT22;9921;47.186;9.778;2023-07-13T04:50:08;18.80;99.90
19552;DHT22;9921;47.186;9.778;2023-07-13T04:52:36;18.60;99.90
19552;DHT22;9921;47.186;9.778;2023-07-13T04:55:04;18.50;99.90
19552;DHT22;9921;47.186;9.778;2023-07-13T04:57:31;18.50;99.90
19552;DHT22;9921;47.186;9.778;2023-07-13T04:59:59;18.60;99.90
19552;DHT22;9921;47.186;9.778;2023-07-13T05:02:26;18.80;99.90
19552;DHT22;9921;47.186;9.778;2023-07-13T05:04:55;18.90;99.90
19552;DHT22;9921;47.186;9.778;2023-07-13T05:07:22;18.90;99.90
19552;DHT22;9921;47.186;9.778;2023-07-13T05:09:49;18.80;99.90
19552;DHT22;9921;47.186;9.778;2023-07-13T05:12:15;18.60;99.90
19552;DHT22;9921;47.186;9.778;2023-07-13T05:14:43;18.50;99.90
19552;DHT22;9921;47.186;9.778;2023-07-13T05:17:10;18.50;99.90
19552;DHT22;9921;47.186;9.778;2023-07-13T05:19:37;18.60;99.90
19552;DHT22;9921;47.186;9.778;2023-07-13T05:22:05;18.60;99.90
19552;DHT22;9921;47.186;9.778;2023-07-13T05:24:32;18.60;99.90
19552;DHT22;9921;47.186;9.778;2023-07-13T05:26:59;18.70;99.90
19552;DHT22;9921;47.186;9.778;2023-07-13T05:29:26;18.90;99.90
19552;DHT22;9921;47.186;9.778;2023-07-13T05:31:53;19.00;99.90
19552;DHT22;9921;47.186;9.778;2023-07-13T05:34:20;19.10;99.90
19552;DHT22;9921;47.186;9.778;2023-07-13T05:36:47;19.20;99.90
19552;DHT22;9921;47.186;9.778;2023-07-13T05:39:16;19.30;99.90
19552;DHT22;9921;47.186;9.778;2023-07-13T05:41:43;19.40;99.90
19552;DHT22;9921;47.186;9.778;2023-07-13T05:44:10;19.50;99.90
19552;DHT22;9921;47.186;9.778;2023-07-13T05:46:37;19.60;99.90
19552;DHT22;9921;47.186;9.778;2023-07-13T05:49:04;19.70;99.90
19552;DHT22;9921;47.186;9.778;2023-07-13T05:51:31;19.80;99.90
19552;DHT22;9921;47.186;9.778;2023-07-13T05:53:57;19.90;99.90
19552;DHT22;9921;47.186;9.778;2023-07-13T05:56:26;19.90;99.90
19552;DHT22;9921;47.186;9.778;2023-07-13T05:58:52;20.00;99.90
19552;DHT22;9921;47.186;9.778;2023-07-13T06:01:19;19.90;99.90
19552;DHT22;9921;47.186;9.778;2023-07-13T06:03:48;19.80;99.90
19552;DHT22;9921;47.186;9.778;2023-07-13T06:06:15;19.60;99.90
19552;DHT22;9921;47.186;9.778;2023-07-13T06:08:44;19.50;99.90
19552;DHT22;9921;47.186;9.778;2023-07-13T06:11:14;19.50;99.90
19552;DHT22;9921;47.186;9.778;2023-07-13T06:13:43;19.50;99.90
19552;DHT22;9921;47.186;9.778;2023-07-13T06:16:11;19.60;99.90
19552;DHT22;9921;47.186;9.778;2023-07-13T06:18:38;19.70;99.90
19552;DHT22;9921;47.186;9.778;2023-07-13T06:21:06;19.70;99.90
19552;DHT22;9921;47.186;9.778;2023-07-13T06:23:33;19.80;99.90
19552;DHT22;9921;47.186;9.778;2023-07-13T06:26:00;19.90;99.90
19552;DHT22;9921;47.186;9.778;2023-07-13T06:28:28;20.00;99.90
19552;DHT22;9921;47.186;9.778;2023-07-13T06:30:57;20.10;99.90
19552;DHT22;9921;47.186;9.778;2023-07-13T06:33:24;20.10;99.90
19552;DHT22;9921;47.186;9.778;2023-07-13T06:35:51;20.20;99.90
19552;DHT22;9921;47.186;9.778;2023-07-13T06:38:18;20.30;99.90
19552;DHT22;9921;47.186;9.778;2023-07-13T06:40:45;20.30;99.90
19552;DHT22;9921;47.186;9.778;2023-07-13T06:43:12;20.40;99.90
19552;DHT22;9921;47.186;9.778;2023-07-13T06:45:41;20.40;99.90
19552;DHT22;9921;47.186;9.778;2023-07-13T06:48:09;20.50;99.90
19552;DHT22;9921;47.186;9.778;2023-07-13T06:50:36;20.50;99.90
19552;DHT22;9921;47.186;9.778;2023-07-13T06:53:03;20.50;99.90
19552;DHT22;9921;47.186;9.778;2023-07-13T06:55:30;20.50;99.90
19552;DHT22;9921;47.186;9.778;2023-07-13T06:57:57;20.50;99.90
19552;DHT22;9921;47.186;9.778;2023-07-13T07:00:24;20.60;99.90
19552;DHT22;9921;47.186;9.778;2023-07-13T07:02:51;20.60;99.90
19552;DHT22;9921;47.186;9.778;2023-07-13T07:05:19;20.70;99.90
19552;DHT22;9921;47.186;9.778;2023-07-13T07:07:47;20.70;99.90
19552;DHT22;9921;47.186;9.778;2023-07-13T07:10:14;20.70;99.90
19552;DHT22;9921;47.186;9.778;2023-07-13T07:12:41;20.70;99.90
19552;DHT22;9921;47.186;9.778;2023-07-13T07:15:08;20.70;99.90
19552;DHT22;9921;47.186;9.778;2023-07-13T07:17:35;20.60;99.90
19552;DHT22;9921;47.186;9.778;2023-07-13T07:20:03;20.60;99.90
19552;DHT22;9921;47.186;9.778;2023-07-13T07:22:31;20.50;99.90
19552;DHT22;9921;47.186;9.778;2023-07-13T07:24:58;20.60;99.90
19552;DHT22;9921;47.186;9.778;2023-07-13T07:27:25;20.60;99.90
19552;DHT22;9921;47.186;9.778;2023-07-13T07:29:52;20.60;99.90
19552;DHT22;9921;47.186;9.778;2023-07-13T07:32:19;20.60;99.90
19552;DHT22;9921;47.186;9.778;2023-07-13T07:34:46;20.60;99.90
19552;DHT22;9921;47.186;9.778;2023-07-13T07:37:13;20.60;99.90
19552;DHT22;9921;47.186;9.778;2023-07-13T07:39:42;20.60;99.90
19552;DHT22;9921;47.186;9.778;2023-07-13T07:42:10;20.60;99.90
19552;DHT22;9921;47.186;9.778;2023-07-13T07:44:39;20.60;99.90
19552;DHT22;9921;47.186;9.778;2023-07-13T07:47:06;20.50;99.90
19552;DHT22;9921;47.186;9.778;2023-07-13T07:49:33;20.50;99.90
19552;DHT22;9921;47.186;9.778;2023-07-13T07:52:00;20.20;99.90
19552;DHT22;9921;47.186;9.778;2023-07-13T07:54:27;20.20;99.90
19552;DHT22;9921;47.186;9.778;2023-07-13T07:56:55;20.20;99.90
19552;DHT22;9921;47.186;9.778;2023-07-13T07:59:22;20.20;99.90
19552;DHT22;9921;47.186;9.778;2023-07-13T08:01:49;20.10;99.90
19552;DHT22;9921;47.186;9.778;2023-07-13T08:04:17;20.10;99.90
19552;DHT22;9921;47.186;9.778;2023-07-13T08:06:46;20.00;99.90
19552;DHT22;9921;47.186;9.778;2023-07-13T08:09:13;20.00;99.90
19552;DHT22;9921;47.186;9.778;2023-07-13T08:11:40;19.90;99.90
19552;DHT22;9921;47.186;9.778;2023-07-13T08:14:08;19.80;99.90
19552;DHT22;9921;47.186;9.778;2023-07-13T08:16:36;19.70;99.90
19552;DHT22;9921;47.186;9.778;2023-07-13T08:19:04;19.50;99.90
19552;DHT22;9921;47.186;9.778;2023-07-13T08:21:31;19.40;99.90
19552;DHT22;9921;47.186;9.778;2023-07-13T08:23:58;19.40;99.90
19552;DHT22;9921;47.186;9.778;2023-07-13T08:26:25;19.60;99.90
19552;DHT22;9921;47.186;9.778;2023-07-13T08:28:52;19.80;99.90
19552;DHT22;9921;47.186;9.778;2023-07-13T08:31:20;19.90;99.90
19552;DHT22;9921;47.186;9.778;2023-07-13T08:33:47;20.00;99.90
19552;DHT22;9921;47.186;9.778;2023-07-13T08:36:14;20.10;99.90
19552;DHT22;9921;47.186;9.778;2023-07-13T08:38:41;20.20;99.90
19552;DHT22;9921;47.186;9.778;2023-07-13T08:41:14;20.20;99.90
19552;DHT22;9921;47.186;9.778;2023-07-13T08:43:45;20.10;99.90
19552;DHT22;9921;47.186;9.778;2023-07-13T08:46:16;20.10;99.90
19552;DHT22;9921;47.186;9.778;2023-07-13T08:48:49;20.10;99.90
19552;DHT22;9921;47.186;9.778;2023-07-13T08:51:26;20.10;99.90
19552;DHT22;9921;47.186;9.778;2023-07-13T08:53:58;20.30;99.90
19552;DHT22;9921;47.186;9.778;2023-07-13T08:56:28;20.50;99.90
19552;DHT22;9921;47.186;9.778;2023-07-13T08:58:57;20.60;99.90
19552;DHT22;9921;47.186;9.778;2023-07-13T09:01:30;20.80;99.90
19552;DHT22;9921;47.186;9.778;2023-07-13T09:04:05;20.90;99.90
19552;DHT22;9921;47.186;9.778;2023-07-13T09:06:44;21.00;99.90
19552;DHT22;9921;47.186;9.778;2023-07-13T09:09:19;21.10;99.90
19552;DHT22;9921;47.186;9.778;2023-07-13T09:11:58;21.10;99.90
19552;DHT22;9921;47.186;9.778;2023-07-13T09:14:42;21.10;99.90
19552;DHT22;9921;47.186;9.778;2023-07-13T09:17:14;21.20;99.90
19552;DHT22;9921;47.186;9.778;2023-07-13T09:19:46;21.20;99.90
19552;DHT22;9921;47.186;9.778;2023-07-13T09:22:17;21.20;99.90
19552;DHT22;9921;47.186;9.778;2023-07-13T09:24:52;21.20;99.90
19552;DHT22;9921;47.186;9.778;2023-07-13T09:27:23;21.40;99.90
19552;DHT22;9921;47.186;9.778;2023-07-13T09:29:57;21.50;99.90
19552;DHT22;9921;47.186;9.778;2023-07-13T09:32:26;21.60;99.90
19552;DHT22;9921;47.186;9.778;2023-07-13T09:34:55;21.70;99.90
19552;DHT22;9921;47.186;9.778;2023-07-13T09:37:29;21.80;99.90
19552;DHT22;9921;47.186;9.778;2023-07-13T09:39:58;21.90;99.90
19552;DHT22;9921;47.186;9.778;2023-07-13T09:42:26;21.90;99.90
19552;DHT22;9921;47.186;9.778;2023-07-13T09:44:55;21.90;99.90
19552;DHT22;9921;47.186;9.778;2023-07-13T09:47:24;21.90;99.90
19552;DHT22;9921;47.186;9.778;2023-07-13T09:49:57;22.00;99.90
19552;DHT22;9921;47.186;9.778;2023-07-13T09:52:25;22.20;99.90
19552;DHT22;9921;47.186;9.778;2023-07-13T09:54:53;22.20;99.90
19552;DHT22;9921;47.186;9.778;2023-07-13T09:57:25;22.20;99.90
19552;DHT22;9921;47.186;9.778;2023-07-13T09:59:54;22.20;99.90
19552;DHT22;9921;47.186;9.778;2023-07-13T10:02:27;22.30;99.90
19552;DHT22;9921;47.186;9.778;2023-07-13T10:05:02;22.50;99.90
19552;DHT22;9921;47.186;9.778;2023-07-13T10:07:30;22.60;99.90
19552;DHT22;9921;47.186;9.778;2023-07-13T10:10:00;22.50;99.90
19552;DHT22;9921;47.186;9.778;2023-07-13T10:12:29;22.50;99.90
19552;DHT22;9921;47.186;9.778;2023-07-13T10:14:59;22.50;99.90
19552;DHT22;9921;47.186;9.778;2023-07-13T10:17:30;22.70;99.90
19552;DHT22;9921;47.186;9.778;2023-07-13T10:20:00;22.80;99.90
19552;DHT22;9921;47.186;9.778;2023-07-13T10:22:36;23.00;99.90
19552;DHT22;9921;47.186;9.778;2023-07-13T10:25:16;23.10;99.90
19552;DHT22;9921;47.186;9.778;2023-07-13T10:27:44;23.20;99.90
19552;DHT22;9921;47.186;9.778;2023-07-13T10:30:15;23.20;99.90
19552;DHT22;9921;47.186;9.778;2023-07-13T10:32:43;23.40;99.90
19552;DHT22;9921;47.186;9.778;2023-07-13T10:35:14;23.40;99.90
19552;DHT22;9921;47.186;9.778;2023-07-13T10:37:47;23.50;99.90
19552;DHT22;9921;47.186;9.778;2023-07-13T10:40:20;23.50;99.90
19552;DHT22;9921;47.186;9.778;2023-07-13T10:42:51;23.50;99.90
19552;DHT22;9921;47.186;9.778;2023-07-13T10:45:21;23.50;99.90
19552;DHT22;9921;47.186;9.778;2023-07-13T10:47:51;23.50;99.90
19552;DHT22;9921;47.186;9.778;2023-07-13T10:50:22;23.50;99.90
19552;DHT22;9921;47.186;9.778;2023-07-13T10:52:52;23.60;99.90
19552;DHT22;9921;47.186;9.778;2023-07-13T10:55:37;23.60;99.90
19552;DHT22;9921;47.186;9.778;2023-07-13T10:58:12;23.70;99.90
19552;DHT22;9921;47.186;9.778;2023-07-13T11:00:48;23.70;99.90
19552;DHT22;9921;47.186;9.778;2023-07-13T11:03:18;23.60;99.90
19552;DHT22;9921;47.186;9.778;2023-07-13T11:06:03;23.50;99.90
19552;DHT22;9921;47.186;9.778;2023-07-13T11:08:38;23.50;99.90
19552;DHT22;9921;47.186;9.778;2023-07-13T11:11:33;23.50;99.90
19552;DHT22;9921;47.186;9.778;2023-07-13T11:14:02;23.40;99.90
19552;DHT22;9921;47.186;9.778;2023-07-13T11:16:36;23.40;99.90
19552;DHT22;9921;47.186;9.778;2023-07-13T11:19:39;23.40;99.90
19552;DHT22;9921;47.186;9.778;2023-07-13T11:22:16;23.40;99.90
19552;DHT22;9921;47.186;9.778;2023-07-13T11:24:59;23.40;99.90
19552;DHT22;9921;47.186;9.778;2023-07-13T11:27:40;23.30;99.90
19552;DHT22;9921;47.186;9.778;2023-07-13T11:30:18;23.30;99.90
19552;DHT22;9921;47.186;9.778;2023-07-13T11:32:50;23.20;99.90
19552;DHT22;9921;47.186;9.778;2023-07-13T11:35:23;23.20;99.90
19552;DHT22;9921;47.186;9.778;2023-07-13T11:37:52;23.10;99.90
19552;DHT22;9921;47.186;9.778;2023-07-13T11:40:19;23.00;99.90
19552;DHT22;9921;47.186;9.778;2023-07-13T11:42:49;23.00;99.90
19552;DHT22;9921;47.186;9.778;2023-07-13T11:45:21;23.00;99.90
19552;DHT22;9921;47.186;9.778;2023-07-13T11:47:49;23.00;99.90
19552;DHT22;9921;47.186;9.778;2023-07-13T11:50:19;23.00;99.90
19552;DHT22;9921;47.186;9.778;2023-07-13T11:52:46;23.00;99.90
19552;DHT22;9921;47.186;9.778;2023-07-13T11:55:17;23.10;99.90
19552;DHT22;9921;47.186;9.778;2023-07-13T11:57:48;23.20;99.90
19552;DHT22;9921;47.186;9.778;2023-07-13T12:00:19;23.30;99.90
19552;DHT22;9921;47.186;9.778;2023-07-13T12:02:49;23.30;99.90
19552;DHT22;9921;47.186;9.778;2023-07-13T12:05:18;23.40;99.90
19552;DHT22;9921;47.186;9.778;2023-07-13T12:07:47;23.50;99.90
19552;DHT22;9921;47.186;9.778;2023-07-13T12:10:21;23.50;99.90
19552;DHT22;9921;47.186;9.778;2023-07-13T12:12:51;23.60;99.90
19552;DHT22;9921;47.186;9.778;2023-07-13T12:15:19;23.60;99.90
19552;DHT22;9921;47.186;9.778;2023-07-13T12:17:47;23.60;99.90
19552;DHT22;9921;47.186;9.778;2023-07-13T12:20:20;23.60;99.90
19552;DHT22;9921;47.186;9.778;2023-07-13T12:22:51;23.60;99.90
19552;DHT22;9921;47.186;9.778;2023-07-13T12:25:20;23.60;99.90
19552;DHT22;9921;47.186;9.778;2023-07-13T12:27:50;23.80;99.90
19552;DHT22;9921;47.186;9.778;2023-07-13T12:30:27;23.80;99.90
19552;DHT22;9921;47.186;9.778;2023-07-13T12:32:58;23.80;99.90
19552;DHT22;9921;47.186;9.778;2023-07-13T12:35:29;23.80;99.90
19552;DHT22;9921;47.186;9.778;2023-07-13T12:38:01;23.80;99.90
19552;DHT22;9921;47.186;9.778;2023-07-13T12:40:33;23.70;99.90
19552;DHT22;9921;47.186;9.778;2023-07-13T12:43:03;23.70;99.90
19552;DHT22;9921;47.186;9.778;2023-07-13T12:45:33;23.80;99.90
19552;DHT22;9921;47.186;9.778;2023-07-13T12:48:04;23.90;99.90
19552;DHT22;9921;47.186;9.778;2023-07-13T12:50:38;24.00;99.90
19552;DHT22;9921;47.186;9.778;2023-07-13T12:53:12;24.00;99.90
19552;DHT22;9921;47.186;9.778;2023-07-13T12:55:43;24.00;99.90
19552;DHT22;9921;47.186;9.778;2023-07-13T12:58:18;24.00;99.90
19552;DHT22;9921;47.186;9.778;2023-07-13T13:00:49;24.00;99.90
19552;DHT22;9921;47.186;9.778;2023-07-13T13:03:24;24.20;99.90
19552;DHT22;9921;47.186;9.778;2023-07-13T13:05:57;24.20;99.90
19552;DHT22;9921;47.186;9.778;2023-07-13T13:08:25;24.20;99.90
19552;DHT22;9921;47.186;9.778;2023-07-13T13:10:54;24.40;99.90
19552;DHT22;9921;47.186;9.778;2023-07-13T13:13:20;24.50;99.90
19552;DHT22;9921;47.186;9.778;2023-07-13T13:15:47;24.60;99.90
19552;DHT22;9921;47.186;9.778;2023-07-13T13:18:18;24.70;99.90
19552;DHT22;9921;47.186;9.778;2023-07-13T13:20:45;24.80;99.90
19552;DHT22;9921;47.186;9.778;2023-07-13T13:23:13;24.80;99.90
19552;DHT22;9921;47.186;9.778;2023-07-13T13:25:41;24.80;99.90
19552;DHT22;9921;47.186;9.778;2023-07-13T13:28:14;24.70;99.90
19552;DHT22;9921;47.186;9.778;2023-07-13T13:30:42;24.50;99.90
19552;DHT22;9921;47.186;9.778;2023-07-13T13:33:10;24.30;99.90
19552;DHT22;9921;47.186;9.778;2023-07-13T13:35:38;24.30;99.90
19552;DHT22;9921;47.186;9.778;2023-07-13T13:38:10;24.20;99.90
19552;DHT22;9921;47.186;9.778;2023-07-13T13:40:37;24.10;99.90
19552;DHT22;9921;47.186;9.778;2023-07-13T13:43:21;24.00;99.90
19552;DHT22;9921;47.186;9.778;2023-07-13T13:45:52;24.10;99.90
19552;DHT22;9921;47.186;9.778;2023-07-13T13:48:25;24.20;99.90
19552;DHT22;9921;47.186;9.778;2023-07-13T13:50:56;24.30;99.90
19552;DHT22;9921;47.186;9.778;2023-07-13T13:53:23;24.40;99.90
19552;DHT22;9921;47.186;9.778;2023-07-13T13:55:50;24.40;99.90
19552;DHT22;9921;47.186;9.778;2023-07-13T13:58:19;24.50;99.90
19552;DHT22;9921;47.186;9.778;2023-07-13T14:00:47;24.50;99.90
19552;DHT22;9921;47.186;9.778;2023-07-13T14:03:17;24.60;99.90
19552;DHT22;9921;47.186;9.778;2023-07-13T14:05:45;24.70;99.90
19552;DHT22;9921;47.186;9.778;2023-07-13T14:08:13;24.70;99.90
19552;DHT22;9921;47.186;9.778;2023-07-13T14:10:41;24.80;99.90
19552;DHT22;9921;47.186;9.778;2023-07-13T14:13:16;24.80;99.90
19552;DHT22;9921;47.186;9.778;2023-07-13T14:15:45;24.80;99.90
19552;DHT22;9921;47.186;9.778;2023-07-13T14:18:13;24.80;99.90
19552;DHT22;9921;47.186;9.778;2023-07-13T14:20:43;24.80;99.90
19552;DHT22;9921;47.186;9.778;2023-07-13T14:23:10;24.80;99.90
19552;DHT22;9921;47.186;9.778;2023-07-13T14:25:37;24.80;99.90
19552;DHT22;9921;47.186;9.778;2023-07-13T14:28:20;24.80;99.90
19552;DHT22;9921;47.186;9.778;2023-07-13T14:30:49;24.70;99.90
19552;DHT22;9921;47.186;9.778;2023-07-13T14:33:21;24.70;99.90
19552;DHT22;9921;47.186;9.778;2023-07-13T14:35:51;24.60;99.90
19552;DHT22;9921;47.186;9.778;2023-07-13T14:38:19;24.60;99.90
19552;DHT22;9921;47.186;9.778;2023-07-13T14:40:46;24.60;99.90
19552;DHT22;9921;47.186;9.778;2023-07-13T14:43:15;24.50;99.90
19552;DHT22;9921;47.186;9.778;2023-07-13T14:45:44;24.40;99.90
19552;DHT22;9921;47.186;9.778;2023-07-13T14:48:16;24.50;99.90
19552;DHT22;9921;47.186;9.778;2023-07-13T14:50:44;24.50;99.90
19552;DHT22;9921;47.186;9.778;2023-07-13T14:53:12;24.40;99.90
19552;DHT22;9921;47.186;9.778;2023-07-13T14:55:40;24.40;99.90
19552;DHT22;9921;47.186;9.778;2023-07-13T14:58:08;24.50;99.90
19552;DHT22;9921;47.186;9.778;2023-07-13T15:00:35;24.50;99.90
19552;DHT22;9921;47.186;9.778;2023-07-13T15:03:04;24.50;99.90
19552;DHT22;9921;47.186;9.778;2023-07-13T15:05:33;24.40;99.90
19552;DHT22;9921;47.186;9.778;2023-07-13T15:08:01;24.40;99.90
19552;DHT22;9921;47.186;9.778;2023-07-13T15:10:32;24.40;99.90
19552;DHT22;9921;47.186;9.778;2023-07-13T15:13:01;24.30;99.90
19552;DHT22;9921;47.186;9.778;2023-07-13T15:15:40;24.20;99.90
19552;DHT22;9921;47.186;9.778;2023-07-13T15:18:10;24.20;99.90
19552;DHT22;9921;47.186;9.778;2023-07-13T15:20:39;24.10;99.90
19552;DHT22;9921;47.186;9.778;2023-07-13T15:23:05;24.10;99.90
19552;DHT22;9921;47.186;9.778;2023-07-13T15:25:33;24.00;99.90
19552;DHT22;9921;47.186;9.778;2023-07-13T15:28:00;24.10;99.90
19552;DHT22;9921;47.186;9.778;2023-07-13T15:30:29;24.10;99.90
19552;DHT22;9921;47.186;9.778;2023-07-13T15:32:58;24.10;99.90
19552;DHT22;9921;47.186;9.778;2023-07-13T15:35:28;24.20;99.90
19552;DHT22;9921;47.186;9.778;2023-07-13T15:37:56;24.20;99.90
19552;DHT22;9921;47.186;9.778;2023-07-13T15:40:23;24.20;99.90
19552;DHT22;9921;47.186;9.778;2023-07-13T15:42:50;24.20;99.90
19552;DHT22;9921;47.186;9.778;2023-07-13T15:45:20;24.20;99.90
19552;DHT22;9921;47.186;9.778;2023-07-13T15:47:48;24.20;99.90
19552;DHT22;9921;47.186;9.778;2023-07-13T15:50:17;24.30;99.90
19552;DHT22;9921;47.186;9.778;2023-07-13T15:52:46;24.30;99.90
19552;DHT22;9921;47.186;9.778;2023-07-13T15:55:15;24.40;99.90
19552;DHT22;9921;47.186;9.778;2023-07-13T15:57:46;24.40;99.90